Time;durP1;ratioP1;P1;durP2;ratioP2;P2;SDS_P1;SDS_P2;PMS_P1;PMS_P2;Temp;Humidity;BMP_temperature;BMP_pressure;BME280_temperature;BME280_humidity;BME280_pressure;Samples;Min_cycle;Max_cycle;Signal;HPM_P1;HPM_P2
2023/07/20 00:02:05;;;;;;;1.13;1.10;;;28.80;38.60;;;;;;5150166;27;45359;-70
2023/07/20 00:04:32;;;;;;;1.70;1.20;;;28.80;38.60;;;;;;5149896;27;45599;-70
2023/07/20 00:06:59;;;;;;;1.40;1.25;;;28.70;38.60;;;;;;5149716;27;46417;-69
2023/07/20 00:09:26;;;;;;;1.52;1.27;;;28.70;38.60;;;;;;5149764;27;45361;-70
2023/07/20 00:11:53;;;;;;;1.30;1.17;;;28.70;38.60;;;;;;5150110;27;45338;-70
2023/07/20 00:14:20;;;;;;;2.47;1.40;;;28.70;38.60;;;;;;5150011;27;45511;-70
2023/07/20 00:16:55;;;;;;;1.17;1.17;;;28.70;38.60;;;;;;5149574;27;46737;-70
2023/07/20 00:19:22;;;;;;;1.08;1.00;;;28.70;38.60;;;;;;5149652;27;45331;-70
2023/07/20 00:21:49;;;;;;;1.38;1.27;;;28.60;38.60;;;;;;5149874;27;45574;-70
2023/07/20 00:24:16;;;;;;;1.58;1.40;;;28.60;38.70;;;;;;5149680;27;45426;-70
2023/07/20 00:26:43;;;;;;;1.20;1.10;;;28.60;38.60;;;;;;5149381;27;48370;-70
2023/07/20 00:29:10;;;;;;;1.58;1.10;;;28.60;38.80;;;;;;5149606;27;45521;-70
2023/07/20 00:31:37;;;;;;;2.17;1.30;;;28.60;38.70;;;;;;5149649;27;45378;-70
2023/07/20 00:34:05;;;;;;;1.77;1.48;;;28.60;38.80;;;;;;5149546;27;45394;-70
2023/07/20 00:36:32;;;;;;;1.50;1.40;;;28.60;38.70;;;;;;5149605;27;45437;-68
2023/07/20 00:38:59;;;;;;;1.25;1.15;;;28.60;38.80;;;;;;5149316;27;45351;-68
2023/07/20 00:41:29;;;;;;;1.70;1.27;;;28.60;38.80;;;;;;5149569;27;45288;-68
2023/07/20 00:43:55;;;;;;;1.52;1.40;;;28.60;38.90;;;;;;5149495;27;45498;-68
2023/07/20 00:46:23;;;;;;;1.52;1.30;;;28.50;38.80;;;;;;5149321;27;45391;-72
2023/07/20 00:48:50;;;;;;;1.55;1.20;;;28.50;38.80;;;;;;5149340;27;45246;-70
2023/07/20 00:51:18;;;;;;;1.52;1.42;;;28.50;38.80;;;;;;5149193;27;45325;-68
2023/07/20 00:53:45;;;;;;;1.92;1.20;;;28.50;38.80;;;;;;5149110;27;45363;-70
2023/07/20 00:56:12;;;;;;;1.40;1.30;;;28.50;38.70;;;;;;5148769;27;46756;-68
2023/07/20 00:58:38;;;;;;;1.30;1.20;;;28.50;39.40;;;;;;5149045;27;45356;-68
2023/07/20 01:01:05;;;;;;;1.38;1.27;;;28.40;38.80;;;;;;5149181;27;45405;-68
2023/07/20 01:03:32;;;;;;;1.40;1.30;;;28.40;38.90;;;;;;5149306;27;45446;-68
2023/07/20 01:06:03;;;;;;;1.33;1.23;;;28.40;38.80;;;;;;5148708;27;45319;-68
2023/07/20 01:08:34;;;;;;;1.30;1.20;;;28.40;38.90;;;;;;5148960;27;45373;-68
2023/07/20 01:11:05;;;;;;;1.58;1.33;;;28.40;38.90;;;;;;5149336;27;45388;-68
2023/07/20 01:13:32;;;;;;;1.77;1.20;;;28.40;38.90;;;;;;5149222;27;45290;-68
2023/07/20 01:15:59;;;;;;;1.20;1.10;;;28.40;38.90;;;;;;5148783;27;46828;-68
2023/07/20 01:18:26;;;;;;;1.60;1.50;;;28.30;39.00;;;;;;5148352;27;45366;-68
2023/07/20 01:20:53;;;;;;;1.40;1.30;;;28.30;38.90;;;;;;5148936;27;45366;-68
2023/07/20 01:23:28;;;;;;;1.73;1.38;;;28.30;39.00;;;;;;5148878;27;45637;-68
2023/07/20 01:26:29;;;;;;;1.30;1.20;;;28.30;39.00;;;;;;5148360;27;46645;-68
2023/07/20 01:29:17;;;;;;;1.50;1.40;;;28.30;39.00;;;;;;5148562;27;45475;-69
2023/07/20 01:31:46;;;;;;;1.13;1.05;;;28.30;39.00;;;;;;5148568;27;45336;-68
2023/07/20 01:34:14;;;;;;;1.30;1.20;;;28.30;39.00;;;;;;5148624;27;45130;-69
2023/07/20 01:36:40;;;;;;;1.20;1.10;;;28.30;39.00;;;;;;5148295;27;45484;-68
2023/07/20 01:39:07;;;;;;;1.98;1.45;;;28.30;39.10;;;;;;5148369;27;45373;-71
2023/07/20 01:41:34;;;;;;;1.40;1.30;;;28.20;39.00;;;;;;5148644;27;45536;-69
2023/07/20 01:44:02;;;;;;;1.83;1.10;;;28.20;39.00;;;;;;5148514;27;45256;-69
2023/07/20 01:46:28;;;;;;;1.85;1.52;;;28.20;39.10;;;;;;5148092;27;46712;-68
2023/07/20 01:48:58;;;;;;;1.20;1.10;;;28.20;39.10;;;;;;5148055;27;45322;-68
2023/07/20 01:51:25;;;;;;;1.42;1.33;;;28.20;39.10;;;;;;5148020;27;45266;-68
2023/07/20 01:53:52;;;;;;;1.52;1.40;;;28.20;39.10;;;;;;5147978;27;45321;-68
2023/07/20 01:56:18;;;;;;;1.33;1.20;;;28.10;39.00;;;;;;5147877;27;45302;-69
2023/07/20 01:58:45;;;;;;;1.25;1.15;;;28.10;39.10;;;;;;5147957;27;45331;-69
2023/07/20 02:01:12;;;;;;;1.50;1.40;;;28.10;39.10;;;;;;5148182;27;45476;-69
2023/07/20 02:03:39;;;;;;;1.42;1.33;;;28.10;39.10;;;;;;5148104;27;45430;-68
2023/07/20 02:06:07;;;;;;;2.22;1.13;;;28.10;39.10;;;;;;5147897;27;45546;-68
2023/07/20 02:08:34;;;;;;;1.55;1.40;;;28.10;39.10;;;;;;5147854;27;45352;-68
2023/07/20 02:11:01;;;;;;;2.47;1.50;;;28.10;39.20;;;;;;5148245;27;45360;-68
2023/07/20 02:13:27;;;;;;;1.85;1.60;;;28.10;39.20;;;;;;5148146;27;45404;-69
2023/07/20 02:15:54;;;;;;;1.48;1.38;;;28.00;39.20;;;;;;5147948;27;46466;-68
2023/07/20 02:18:21;;;;;;;1.40;1.25;;;28.00;39.20;;;;;;5147560;27;45469;-69
2023/07/20 02:20:48;;;;;;;1.50;1.40;;;28.00;39.80;;;;;;5147833;27;45326;-68
2023/07/20 02:23:16;;;;;;;1.40;1.30;;;28.00;39.80;;;;;;5147841;27;45454;-69
2023/07/20 02:25:44;;;;;;;1.98;1.52;;;28.00;39.20;;;;;;5147618;27;46476;-68
2023/07/20 02:28:13;;;;;;;2.00;1.30;;;28.00;39.30;;;;;;5147421;27;45384;-68
2023/07/20 02:30:40;;;;;;;1.25;1.15;;;28.00;39.30;;;;;;5147821;27;45312;-68
2023/07/20 02:33:08;;;;;;;2.50;1.27;;;28.00;39.30;;;;;;5148009;27;45314;-68
2023/07/20 02:35:35;;;;;;;1.40;1.30;;;27.90;39.20;;;;;;5147320;27;46365;-68
2023/07/20 02:38:02;;;;;;;1.65;1.30;;;27.90;39.30;;;;;;5147529;27;45293;-68
2023/07/20 02:40:30;;;;;;;1.20;1.10;;;27.90;39.30;;;;;;5147564;27;45319;-69
2023/07/20 02:42:56;;;;;;;1.40;1.30;;;27.90;39.30;;;;;;5147649;27;45423;-69
2023/07/20 02:45:23;;;;;;;1.20;1.10;;;27.90;39.30;;;;;;5144584;27;45388;-68
2023/07/20 02:47:50;;;;;;;1.33;1.23;;;27.90;39.30;;;;;;5147246;27;45434;-68
2023/07/20 02:50:17;;;;;;;1.80;1.58;;;27.90;39.40;;;;;;5147485;27;45311;-68
2023/07/20 02:52:44;;;;;;;1.50;1.40;;;27.80;39.40;;;;;;5147466;27;45180;-68
2023/07/20 02:55:11;;;;;;;1.33;1.23;;;27.80;39.40;;;;;;5147449;27;45461;-68
2023/07/20 02:57:39;;;;;;;1.13;1.13;;;27.80;39.40;;;;;;5147202;27;45249;-68
2023/07/20 03:00:07;;;;;;;1.30;1.20;;;27.70;39.40;;;;;;5147404;27;45281;-68
2023/07/20 03:02:34;;;;;;;2.38;1.48;;;27.70;39.30;;;;;;5149200;27;45165;-69
2023/07/20 03:05:02;;;;;;;1.55;1.45;;;27.70;39.20;;;;;;5150747;27;45850;-68
2023/07/20 03:07:29;;;;;;;1.50;1.38;;;27.70;39.40;;;;;;5150676;27;45259;-68
2023/07/20 03:09:56;;;;;;;1.33;1.30;;;27.70;39.40;;;;;;5150995;27;45240;-68
2023/07/20 03:12:24;;;;;;;1.67;1.50;;;27.70;39.40;;;;;;5151156;27;45338;-68
2023/07/20 03:14:52;;;;;;;1.30;1.20;;;27.70;39.40;;;;;;5150813;27;45345;-68
2023/07/20 03:17:20;;;;;;;1.40;1.30;;;27.60;39.40;;;;;;5150640;27;45326;-68
2023/07/20 03:19:47;;;;;;;1.50;1.40;;;27.60;39.40;;;;;;5150702;27;45290;-69
2023/07/20 03:22:14;;;;;;;1.38;1.17;;;27.60;39.50;;;;;;5151215;27;45446;-69
2023/07/20 03:24:41;;;;;;;1.70;1.40;;;27.60;39.60;;;;;;5150316;27;45473;-68
2023/07/20 03:27:08;;;;;;;2.20;1.40;;;27.60;39.60;;;;;;5150457;27;45344;-68
2023/07/20 03:29:34;;;;;;;1.45;1.35;;;27.50;39.50;;;;;;5150713;27;45321;-68
2023/07/20 03:32:03;;;;;;;1.40;1.27;;;27.60;39.60;;;;;;5150784;27;45497;-68
2023/07/20 03:34:29;;;;;;;1.40;1.30;;;27.50;39.60;;;;;;5150346;27;45553;-68
2023/07/20 03:36:56;;;;;;;1.55;1.45;;;27.50;39.60;;;;;;5150363;27;45318;-69
2023/07/20 03:39:23;;;;;;;1.70;1.60;;;27.50;39.60;;;;;;5150459;27;45305;-68
2023/07/20 03:41:50;;;;;;;1.83;1.38;;;27.50;39.70;;;;;;5150611;27;45438;-69
2023/07/20 03:44:17;;;;;;;1.30;1.20;;;27.50;39.70;;;;;;5150139;27;45427;-68
2023/07/20 03:46:44;;;;;;;2.15;1.50;;;27.50;39.70;;;;;;5150423;27;45285;-68
2023/07/20 03:49:12;;;;;;;1.50;1.40;;;27.40;39.70;;;;;;5150496;27;45327;-68
2023/07/20 03:51:39;;;;;;;1.95;1.23;;;27.40;39.70;;;;;;5150656;27;45469;-69
2023/07/20 03:54:07;;;;;;;1.60;1.33;;;27.40;39.70;;;;;;5149576;27;45447;-68
2023/07/20 03:56:35;;;;;;;1.15;1.05;;;27.40;39.80;;;;;;5150038;27;45234;-68
2023/07/20 03:59:02;;;;;;;1.40;1.30;;;27.40;39.80;;;;;;5150122;27;45386;-68
2023/07/20 04:01:29;;;;;;;1.98;1.45;;;27.40;39.80;;;;;;5150264;27;45414;-69
2023/07/20 04:03:56;;;;;;;1.60;1.50;;;27.40;39.80;;;;;;5149861;27;46382;-69
2023/07/20 04:06:24;;;;;;;1.40;1.30;;;27.30;39.80;;;;;;5149954;27;45307;-68
2023/07/20 04:08:51;;;;;;;1.63;1.38;;;27.30;39.80;;;;;;5149951;27;45379;-68
2023/07/20 04:11:17;;;;;;;2.70;1.45;;;27.30;39.80;;;;;;5150084;27;45416;-68
2023/07/20 04:13:44;;;;;;;1.80;1.70;;;27.30;40.00;;;;;;5149379;27;45639;-69
2023/07/20 04:16:11;;;;;;;1.40;1.30;;;27.30;40.00;;;;;;5150048;27;45381;-68
2023/07/20 04:18:38;;;;;;;1.30;1.20;;;27.30;40.00;;;;;;5149855;27;45334;-69
2023/07/20 04:21:05;;;;;;;1.52;1.20;;;27.30;39.90;;;;;;5149831;27;45439;-68
2023/07/20 04:23:33;;;;;;;1.23;1.20;;;27.20;39.90;;;;;;5149450;27;45287;-68
2023/07/20 04:26:00;;;;;;;1.90;1.50;;;27.20;40.00;;;;;;5149685;27;45431;-68
2023/07/20 04:28:27;;;;;;;3.25;1.65;;;27.20;40.00;;;;;;5149906;27;45279;-68
2023/07/20 04:30:53;;;;;;;2.10;1.20;;;27.20;40.00;;;;;;5149894;27;45407;-68
2023/07/20 04:33:20;;;;;;;1.67;1.20;;;27.20;40.00;;;;;;5149432;27;45329;-69
2023/07/20 04:35:49;;;;;;;1.60;1.40;;;27.20;40.00;;;;;;5149444;27;45309;-68
2023/07/20 04:38:17;;;;;;;1.48;1.38;;;27.20;40.00;;;;;;5149611;27;45390;-69
2023/07/20 04:40:45;;;;;;;1.23;1.20;;;27.20;40.10;;;;;;5149985;27;45288;-68
2023/07/20 04:43:12;;;;;;;1.23;1.13;;;27.10;40.00;;;;;;5149225;27;45271;-69
2023/07/20 04:45:39;;;;;;;1.83;1.50;;;27.20;40.10;;;;;;5149256;27;45264;-68
2023/07/20 04:48:09;;;;;;;1.30;1.20;;;27.10;40.10;;;;;;5149494;27;45472;-69
2023/07/20 04:50:36;;;;;;;1.52;1.30;;;27.10;40.10;;;;;;5149604;27;45293;-69
2023/07/20 04:53:03;;;;;;;1.40;1.30;;;27.10;40.10;;;;;;5148952;27;46383;-68
2023/07/20 04:55:30;;;;;;;1.40;1.30;;;27.10;40.10;;;;;;5149105;27;45358;-68
2023/07/20 04:57:58;;;;;;;1.63;1.40;;;27.10;40.10;;;;;;5149253;27;45329;-68
2023/07/20 05:00:25;;;;;;;1.40;1.30;;;27.10;40.10;;;;;;5149455;27;45290;-70
2023/07/20 05:02:52;;;;;;;1.52;1.42;;;27.10;40.20;;;;;;5149097;27;45348;-70
2023/07/20 05:05:19;;;;;;;1.70;1.60;;;27.10;40.20;;;;;;5148860;27;45271;-70
2023/07/20 05:07:46;;;;;;;2.03;1.40;;;27.00;40.10;;;;;;5148854;27;45340;-69
2023/07/20 05:10:13;;;;;;;1.58;1.48;;;27.00;40.20;;;;;;5149070;27;45424;-69
2023/07/20 05:12:39;;;;;;;1.70;1.30;;;27.00;40.20;;;;;;5148696;27;45363;-69
2023/07/20 05:15:08;;;;;;;1.48;1.38;;;27.00;40.20;;;;;;5148714;27;45306;-69
2023/07/20 05:17:35;;;;;;;1.52;1.42;;;27.00;40.30;;;;;;5149145;27;45434;-69
2023/07/20 05:20:04;;;;;;;1.42;1.33;;;27.00;40.30;;;;;;5148972;27;45409;-68
2023/07/20 05:22:31;;;;;;;2.38;1.58;;;27.00;40.30;;;;;;5148511;27;46266;-68
2023/07/20 05:24:58;;;;;;;1.30;1.20;;;27.00;40.30;;;;;;5147688;27;45283;-69
2023/07/20 05:27:24;;;;;;;1.70;1.60;;;27.00;40.50;;;;;;5148657;27;45268;-69
2023/07/20 05:29:51;;;;;;;1.60;1.30;;;27.00;40.30;;;;;;5148898;27;45443;-69
2023/07/20 05:32:19;;;;;;;1.40;1.30;;;27.00;40.40;;;;;;5148358;27;45427;-69
2023/07/20 05:34:46;;;;;;;1.60;1.45;;;27.00;41.00;;;;;;5148458;27;45383;-70
2023/07/20 05:37:13;;;;;;;1.52;1.33;;;27.00;40.40;;;;;;5148656;27;45259;-70
2023/07/20 05:39:40;;;;;;;1.35;1.17;;;27.00;40.50;;;;;;5149018;27;45284;-70
2023/07/20 05:42:07;;;;;;;1.52;1.40;;;27.00;40.50;;;;;;5148185;27;46360;-69
2023/07/20 05:44:34;;;;;;;1.52;1.42;;;26.90;40.30;;;;;;5148175;27;45335;-70
2023/07/20 05:47:02;;;;;;;1.73;1.33;;;26.90;40.30;;;;;;5148468;27;45267;-68
2023/07/20 05:49:30;;;;;;;2.05;1.55;;;26.90;40.40;;;;;;5148409;27;45521;-69
2023/07/20 05:51:57;;;;;;;1.60;1.50;;;26.90;40.40;;;;;;5148137;27;45381;-70
2023/07/20 05:54:25;;;;;;;1.50;1.40;;;26.90;40.50;;;;;;5147668;27;45397;-69
2023/07/20 05:56:51;;;;;;;1.83;1.67;;;26.90;40.40;;;;;;5148350;27;45324;-69
2023/07/20 05:59:19;;;;;;;2.15;1.58;;;26.90;40.50;;;;;;5148700;27;45400;-70
2023/07/20 06:01:46;;;;;;;1.73;1.60;;;26.90;40.50;;;;;;5148079;27;46318;-69
2023/07/20 06:04:13;;;;;;;1.65;1.55;;;26.90;40.50;;;;;;5148021;27;45382;-69
2023/07/20 06:06:41;;;;;;;1.50;1.40;;;26.90;40.60;;;;;;5148295;27;45243;-69
2023/07/20 06:09:11;;;;;;;3.53;1.67;;;26.90;41.20;;;;;;5148366;27;45256;-70
2023/07/20 06:11:39;;;;;;;4.18;1.65;;;26.90;40.80;;;;;;5147913;27;45491;-69
2023/07/20 06:14:06;;;;;;;4.72;1.70;;;26.90;41.20;;;;;;5148222;27;45464;-69
2023/07/20 06:16:32;;;;;;;5.20;1.65;;;26.90;41.30;;;;;;5148081;27;45274;-68
2023/07/20 06:19:01;;;;;;;7.40;1.98;;;26.90;41.20;;;;;;5148191;27;45468;-68
2023/07/20 06:21:28;;;;;;;2.67;2.03;;;26.90;41.10;;;;;;5147680;27;46453;-68
2023/07/20 06:23:56;;;;;;;2.63;1.77;;;26.90;41.00;;;;;;5147861;27;45472;-68
2023/07/20 06:26:23;;;;;;;1.95;1.63;;;26.90;41.00;;;;;;5147911;27;45385;-68
2023/07/20 06:28:49;;;;;;;1.60;1.50;;;26.90;41.00;;;;;;5148060;27;45422;-68
2023/07/20 06:31:17;;;;;;;3.58;1.70;;;26.90;41.00;;;;;;5147719;27;45367;-68
2023/07/20 06:33:44;;;;;;;1.85;1.70;;;26.90;40.90;;;;;;5147411;27;45340;-68
2023/07/20 06:36:11;;;;;;;6.55;2.03;;;26.90;41.00;;;;;;5147512;27;45313;-69
2023/07/20 06:38:38;;;;;;;3.58;2.13;;;26.90;41.50;;;;;;5147836;27;45478;-69
2023/07/20 06:41:06;;;;;;;4.97;2.22;;;26.70;42.10;;;;;;5147509;27;46281;-69
2023/07/20 06:43:33;;;;;;;11.68;2.75;;;26.60;42.40;;;;;;5147039;27;45426;-68
2023/07/20 06:46:00;;;;;;;15.15;3.15;;;26.50;42.70;;;;;;5147352;27;45358;-68
2023/07/20 06:48:26;;;;;;;13.68;3.05;;;26.50;42.90;;;;;;5147460;27;45399;-68
2023/07/20 06:50:53;;;;;;;9.63;2.65;;;26.40;43.00;;;;;;5147270;27;46409;-68
2023/07/20 06:53:20;;;;;;;10.52;2.65;;;26.30;43.20;;;;;;5146843;27;45290;-69
2023/07/20 06:55:47;;;;;;;4.72;2.20;;;26.30;43.40;;;;;;5146967;27;45395;-67
2023/07/20 06:58:15;;;;;;;8.80;2.28;;;26.20;43.30;;;;;;5147378;27;45454;-68
2023/07/20 07:00:42;;;;;;;3.17;2.25;;;26.10;43.40;;;;;;5147161;27;47989;-67
2023/07/20 07:03:09;;;;;;;6.95;2.33;;;26.10;43.20;;;;;;5146896;27;45353;-67
2023/07/20 07:05:39;;;;;;;5.90;2.15;;;26.10;43.30;;;;;;5147153;27;45346;-70
2023/07/20 07:08:05;;;;;;;7.18;2.28;;;26.10;43.10;;;;;;5147195;27;45473;-69
2023/07/20 07:10:33;;;;;;;2.60;1.90;;;26.00;43.00;;;;;;5128385;27;45436;-70
2023/07/20 07:13:00;;;;;;;4.30;2.20;;;26.00;43.00;;;;;;5146925;27;45424;-68
2023/07/20 07:15:28;;;;;;;5.82;2.38;;;25.90;42.60;;;;;;5146969;27;45429;-68
2023/07/20 07:17:55;;;;;;;3.80;2.40;;;25.90;42.10;;;;;;5146804;27;45643;-68
2023/07/20 07:20:22;;;;;;;3.97;2.58;;;25.90;41.30;;;;;;5146607;27;46328;-68
2023/07/20 07:22:50;;;;;;;2.67;2.13;;;25.80;41.00;;;;;;5146764;27;45364;-69
2023/07/20 07:25:17;;;;;;;3.28;2.38;;;25.70;40.80;;;;;;5146661;27;45335;-67
2023/07/20 07:27:44;;;;;;;4.25;2.17;;;25.70;41.30;;;;;;5146715;27;45365;-68
2023/07/20 07:30:12;;;;;;;3.38;2.30;;;25.70;41.40;;;;;;5146435;27;45294;-68
2023/07/20 07:32:41;;;;;;;3.33;2.13;;;25.70;41.10;;;;;;5146553;27;45397;-67
2023/07/20 07:35:08;;;;;;;4.75;2.67;;;25.70;41.30;;;;;;5146586;27;45366;-67
2023/07/20 07:37:36;;;;;;;4.50;2.47;;;25.70;41.20;;;;;;5146761;27;45380;-68
2023/07/20 07:40:04;;;;;;;4.95;2.35;;;25.70;41.10;;;;;;5146342;27;45474;-68
2023/07/20 07:42:31;;;;;;;5.38;2.50;;;25.70;41.20;;;;;;5146326;27;45329;-68
2023/07/20 07:44:58;;;;;;;4.50;2.33;;;25.70;41.40;;;;;;5146392;27;45340;-68
2023/07/20 07:47:24;;;;;;;5.75;2.88;;;25.80;41.40;;;;;;5146443;27;45411;-68
2023/07/20 07:49:52;;;;;;;3.78;2.25;;;25.80;41.40;;;;;;5149263;27;46414;-67
2023/07/20 07:52:19;;;;;;;6.55;2.40;;;25.80;41.30;;;;;;5144325;27;45489;-66
2023/07/20 07:54:46;;;;;;;6.03;2.10;;;25.80;42.10;;;;;;5150526;27;45450;-68
2023/07/20 07:57:13;;;;;;;6.68;2.47;;;25.90;42.40;;;;;;5150556;27;45362;-73
2023/07/20 07:59:40;;;;;;;8.50;3.03;;;25.90;42.40;;;;;;5149649;27;45732;-69
2023/07/20 08:02:07;;;;;;;9.27;3.08;;;26.00;42.50;;;;;;5149742;27;45276;-68
2023/07/20 08:04:34;;;;;;;7.00;2.78;;;26.10;41.60;;;;;;5150667;27;45325;-72
2023/07/20 08:07:04;;;;;;;4.13;2.10;;;26.20;41.70;;;;;;5151229;27;45430;-72
2023/07/20 08:09:31;;;;;;;4.50;2.78;;;26.20;41.40;;;;;;5143309;27;45378;-73
2023/07/20 08:11:58;;;;;;;9.50;6.75;;;26.30;42.00;;;;;;5149654;27;45361;-69
2023/07/20 08:14:25;;;;;;;5.20;2.70;;;26.40;40.60;;;;;;5149622;27;45264;-70
2023/07/20 08:16:52;;;;;;;7.03;2.63;;;26.40;41.20;;;;;;5150294;27;45582;-72
2023/07/20 08:19:20;;;;;;;8.35;3.00;;;26.50;41.40;;;;;;5149554;27;45589;-69
2023/07/20 08:21:47;;;;;;;8.43;2.53;;;26.50;41.10;;;;;;5149577;27;45144;-69
2023/07/20 08:24:15;;;;;;;4.43;2.40;;;26.60;41.10;;;;;;5149606;27;45328;-69
2023/07/20 08:26:42;;;;;;;4.78;2.70;;;26.60;40.50;;;;;;5149704;27;45427;-73
2023/07/20 08:29:09;;;;;;;5.22;2.30;;;26.60;41.00;;;;;;5149209;27;45466;-66
2023/07/20 08:31:36;;;;;;;6.32;2.22;;;26.60;41.50;;;;;;5149714;27;45456;-69
2023/07/20 08:34:02;;;;;;;3.20;2.10;;;26.70;41.00;;;;;;5149763;27;45358;-77
2023/07/20 08:36:29;;;;;;;2.63;2.20;;;26.80;40.20;;;;;;5149641;27;45456;-69
2023/07/20 08:38:57;;;;;;;8.43;4.95;;;26.80;40.20;;;;;;5146710;27;45478;-69
2023/07/20 08:41:25;;;;;;;9.40;5.70;;;26.80;39.80;;;;;;5140001;27;45335;-68
2023/07/20 08:43:51;;;;;;;9.20;4.95;;;26.80;40.00;;;;;;5148323;27;45412;-73
2023/07/20 08:46:18;;;;;;;10.48;3.97;;;26.80;40.30;;;;;;5149866;27;45339;-67
2023/07/20 08:48:45;;;;;;;2.75;2.50;;;26.90;40.60;;;;;;5149584;27;45246;-69
2023/07/20 08:51:12;;;;;;;6.50;2.28;;;26.90;39.80;;;;;;5149665;27;45415;-68
2023/07/20 08:53:39;;;;;;;14.35;12.98;;;27.00;40.10;;;;;;5149605;27;45331;-73
2023/07/20 08:56:06;;;;;;;8.90;3.30;;;27.00;39.90;;;;;;5149610;27;45419;-71
2023/07/20 08:58:34;;;;;;;3.35;2.45;;;27.10;39.70;;;;;;5148474;27;48191;-71
2023/07/20 09:01:02;;;;;;;7.28;2.10;;;27.20;40.20;;;;;;5147625;27;45309;-71
2023/07/20 09:03:29;;;;;;;4.68;2.00;;;27.20;39.30;;;;;;5149151;27;45360;-72
2023/07/20 09:05:55;;;;;;;6.47;2.55;;;27.30;39.10;;;;;;5149424;27;45350;-71
2023/07/20 09:08:22;;;;;;;3.03;1.33;;;27.30;38.10;;;;;;5149102;27;46674;-69
2023/07/20 09:10:49;;;;;;;1.75;1.45;;;27.30;36.30;;;;;;5148906;27;45330;-73
2023/07/20 09:13:16;;;;;;;5.53;3.97;;;27.20;36.30;;;;;;5149317;27;45370;-72
2023/07/20 09:15:48;;;;;;;5.60;2.30;;;27.30;36.60;;;;;;5149247;27;45485;-69
2023/07/20 09:18:24;;;;;;;2.78;1.90;;;27.30;37.80;;;;;;5147230;27;46783;-70
2023/07/20 09:20:51;;;;;;;5.95;2.70;;;27.40;37.30;;;;;;5149276;27;45254;-71
2023/07/20 09:23:18;;;;;;;4.18;2.20;;;27.40;37.60;;;;;;5139516;27;45470;-75
2023/07/20 09:25:45;;;;;;;2.88;2.10;;;27.40;37.80;;;;;;5142552;27;45468;-72
2023/07/20 09:28:12;;;;;;;4.13;1.77;;;27.40;37.80;;;;;;5147303;27;46991;-72
2023/07/20 09:30:39;;;;;;;2.92;1.67;;;27.40;37.80;;;;;;5131674;27;45301;-69
2023/07/20 09:33:08;;;;;;;1.70;1.60;;;27.40;38.10;;;;;;5148175;27;45268;-70
2023/07/20 09:35:35;;;;;;;1.70;1.60;;;27.50;38.00;;;;;;5143545;27;45457;-72
2023/07/20 09:38:02;;;;;;;5.55;1.60;;;27.60;37.70;;;;;;5133109;27;46634;-71
2023/07/20 09:40:29;;;;;;;5.90;1.83;;;27.70;37.70;;;;;;5137700;27;45455;-77
2023/07/20 09:43:00;;;;;;;4.60;2.08;;;27.70;38.20;;;;;;5149198;27;45280;-75
2023/07/20 09:45:30;;;;;;;4.25;1.70;;;27.70;37.80;;;;;;5139969;27;45936;-72
2023/07/20 09:48:07;;;;;;;7.63;2.08;;;27.60;38.10;;;;;;5127707;27;45265;-71
2023/07/20 09:50:34;;;;;;;2.10;1.60;;;27.50;38.30;;;;;;5134573;27;45430;-70
2023/07/20 09:53:01;;;;;;;2.85;1.90;;;27.60;38.50;;;;;;5138539;27;45300;-74
2023/07/20 09:55:28;;;;;;;4.57;2.58;;;27.70;38.20;;;;;;5147367;27;45436;-69
2023/07/20 09:57:55;;;;;;;3.15;2.15;;;27.80;38.40;;;;;;5148328;27;47326;-69
2023/07/20 10:00:22;;;;;;;3.65;2.17;;;27.80;37.40;;;;;;5148211;27;45559;-70
2023/07/20 10:02:49;;;;;;;2.67;1.83;;;27.70;37.90;;;;;;5148370;27;45339;-70
2023/07/20 10:05:17;;;;;;;2.67;1.88;;;27.90;37.60;;;;;;5157691;27;45544;-69
2023/07/20 10:07:46;;;;;;;2.38;1.90;;;27.90;37.40;;;;;;5169103;27;45586;-70
2023/07/20 10:10:13;;;;;;;2.13;1.90;;;28.00;37.40;;;;;;5141009;27;45419;-69
2023/07/20 10:12:40;;;;;;;3.65;1.65;;;28.00;37.00;;;;;;5145069;27;45412;-68
2023/07/20 10:15:12;;;;;;;2.97;1.52;;;28.00;36.80;;;;;;5146312;27;45462;-69
2023/07/20 10:17:40;;;;;;;2.58;1.48;;;27.90;36.70;;;;;;5132745;27;46491;-69
2023/07/20 10:20:08;;;;;;;2.60;1.75;;;27.90;36.50;;;;;;5138129;27;45425;-69
2023/07/20 10:22:37;;;;;;;2.35;1.60;;;27.90;36.90;;;;;;5145356;27;45314;-69
2023/07/20 10:25:05;;;;;;;2.17;1.77;;;27.90;36.50;;;;;;5147014;27;45519;-69
2023/07/20 10:27:32;;;;;;;3.20;1.60;;;27.90;36.40;;;;;;5146593;27;46387;-69
2023/07/20 10:30:00;;;;;;;2.92;1.50;;;27.90;36.50;;;;;;5148468;27;45425;-69
2023/07/20 10:32:27;;;;;;;2.78;1.77;;;28.00;36.80;;;;;;5145116;27;45311;-70
2023/07/20 10:34:54;;;;;;;3.08;1.52;;;28.10;37.00;;;;;;5136870;27;45479;-68
2023/07/20 10:37:50;;;;;;;3.03;1.98;;;28.20;36.70;;;;;;5131449;27;46567;-69
2023/07/20 10:40:31;;;;;;;4.63;2.70;;;28.20;36.40;;;;;;5135335;27;45543;-70
2023/07/20 10:43:00;;;;;;;2.30;1.58;;;28.30;36.40;;;;;;5135223;27;45376;-69
2023/07/20 10:45:42;;;;;;;3.75;1.55;;;28.30;36.40;;;;;;5154712;27;45636;-70
2023/07/20 10:48:16;;;;;;;2.50;1.60;;;28.30;36.70;;;;;;5168600;27;45372;-71
2023/07/20 10:50:43;;;;;;;4.22;1.55;;;28.30;36.70;;;;;;5127079;27;45379;-70
2023/07/20 10:53:18;;;;;;;2.03;1.73;;;28.30;35.90;;;;;;5127008;27;45544;-70
2023/07/20 10:55:46;;;;;;;3.90;1.88;;;28.40;36.30;;;;;;5129895;27;46954;-71
2023/07/20 10:58:14;;;;;;;3.58;1.95;;;28.50;36.10;;;;;;5147615;27;45704;-69
2023/07/20 11:01:00;;;;;;;2.22;1.50;;;28.60;36.10;;;;;;5128762;27;45746;-68
2023/07/20 11:03:33;;;;;;;7.70;1.90;;;28.70;35.80;;;;;;5145380;27;45520;-72
2023/07/20 11:06:00;;;;;;;4.78;1.67;;;28.70;36.20;;;;;;5139215;27;45734;-69
2023/07/20 11:08:42;;;;;;;4.03;2.03;;;28.70;35.90;;;;;;5137129;27;46687;-73
2023/07/20 11:11:25;;;;;;;3.88;1.95;;;28.70;36.20;;;;;;5134243;27;45402;-69
2023/07/20 11:13:56;;;;;;;13.27;2.53;;;28.70;35.60;;;;;;5126764;27;45463;-70
2023/07/20 11:16:40;;;;;;;10.30;2.33;;;28.60;36.20;;;;;;5144075;27;45308;-69
2023/07/20 11:19:14;;;;;;;14.10;2.17;;;28.60;35.40;;;;;;5134413;27;45308;-70
2023/07/20 11:21:42;;;;;;;7.45;2.08;;;28.50;36.10;;;;;;5146859;27;45349;-70
2023/07/20 11:24:10;;;;;;;7.70;1.73;;;28.60;35.80;;;;;;5147140;27;45521;-76
2023/07/20 11:26:47;;;;;;;1.90;1.80;;;28.60;35.60;;;;;;5148717;27;45445;-72
2023/07/20 11:29:13;;;;;;;2.20;1.80;;;28.60;34.90;;;;;;5150262;27;46385;-74
2023/07/20 11:31:41;;;;;;;5.85;1.77;;;28.70;35.10;;;;;;5149784;27;45199;-71
2023/07/20 11:34:10;;;;;;;8.18;2.22;;;28.80;34.90;;;;;;5150101;27;45425;-69
2023/07/20 11:36:37;;;;;;;5.32;1.85;;;28.80;35.10;;;;;;5150981;27;45295;-69
2023/07/20 11:39:04;;;;;;;2.85;1.73;;;28.80;34.30;;;;;;5150902;27;46364;-69
2023/07/20 11:41:33;;;;;;;7.35;1.80;;;28.90;34.60;;;;;;5151025;27;45251;-70
2023/07/20 11:44:00;;;;;;;2.33;1.63;;;28.90;34.90;;;;;;5151055;27;45295;-70
2023/07/20 11:46:28;;;;;;;3.10;2.20;;;28.90;35.30;;;;;;5151249;27;45481;-69
2023/07/20 11:49:00;;;;;;;8.93;2.30;;;29.00;35.20;;;;;;5150802;27;46495;-73
2023/07/20 11:51:30;;;;;;;4.28;2.00;;;29.00;36.40;;;;;;5149316;27;45485;-71
2023/07/20 11:53:57;;;;;;;10.98;2.25;;;29.10;35.10;;;;;;5150279;27;45273;-71
2023/07/20 11:56:24;;;;;;;9.75;2.00;;;29.10;35.40;;;;;;5157203;27;45573;-70
2023/07/20 11:58:55;;;;;;;2.67;1.90;;;29.20;34.30;;;;;;5150487;27;47369;-69
2023/07/20 12:01:23;;;;;;;3.25;2.20;;;29.20;33.90;;;;;;5146586;27;45458;-69
2023/07/20 12:03:50;;;;;;;6.95;1.88;;;29.20;34.60;;;;;;5146987;27;45529;-71
2023/07/20 12:06:16;;;;;;;6.32;1.90;;;29.40;34.80;;;;;;5154265;27;45511;-74
2023/07/20 12:08:44;;;;;;;2.65;1.52;;;29.50;35.30;;;;;;5146566;27;46392;-74
2023/07/20 12:11:11;;;;;;;2.50;2.00;;;29.60;35.00;;;;;;5150421;27;45291;-70
2023/07/20 12:13:39;;;;;;;3.75;1.67;;;29.80;35.50;;;;;;5130137;27;45551;-70
2023/07/20 12:16:14;;;;;;;6.40;2.20;;;29.90;35.00;;;;;;5139345;27;45395;-70
2023/07/20 12:18:41;;;;;;;2.30;1.77;;;29.90;34.80;;;;;;5145571;27;45618;-70
2023/07/20 12:21:08;;;;;;;3.22;2.10;;;29.90;33.40;;;;;;5141511;27;45422;-71
2023/07/20 12:23:38;;;;;;;3.65;1.88;;;29.80;33.00;;;;;;5135778;27;45486;-71
2023/07/20 12:26:07;;;;;;;3.15;1.90;;;29.80;33.60;;;;;;5159087;27;45430;-70
2023/07/20 12:28:34;;;;;;;4.05;1.88;;;30.00;33.90;;;;;;5145661;27;45602;-71
2023/07/20 12:31:01;;;;;;;8.38;2.05;;;30.20;33.50;;;;;;5143189;27;45289;-70
2023/07/20 12:33:29;;;;;;;2.60;1.67;;;30.10;33.50;;;;;;5135510;27;45531;-69
2023/07/20 12:35:58;;;;;;;3.05;1.60;;;30.20;33.20;;;;;;5137100;27;45533;-68
2023/07/20 12:38:25;;;;;;;3.67;1.73;;;30.20;33.40;;;;;;5141234;27;45481;-71
2023/07/20 12:40:52;;;;;;;6.13;1.92;;;30.20;33.50;;;;;;5148292;27;45460;-71
2023/07/20 12:43:19;;;;;;;3.08;1.65;;;30.30;34.20;;;;;;5150399;27;45392;-71
2023/07/20 12:45:46;;;;;;;3.55;1.92;;;30.40;33.20;;;;;;5145803;27;45725;-71
2023/07/20 12:48:12;;;;;;;1.50;1.40;;;30.50;32.70;;;;;;5148616;27;45640;-72
2023/07/20 12:50:41;;;;;;;3.90;1.58;;;30.40;32.20;;;;;;5146095;27;45649;-71